Aeroporto :
LOGIN :

Iscrizione | Disclaimer

   EN    FR    IT 

 










Sommario :    VFR   VFR Marginale   IFR   IFR Intensivo   IFR Molto Intensivo
Visibilità : 
Base nubi : 
>= 8 km
>= 3000ft
5 / 8 km
1000 / 3000 ft
1500m / 5 km
500 / 1000 ft
800 / 1500m
200 / 500 ft
< 800m
< 200 ft
Simboli :   Temporali  Nebbia  Neve Forte  Precipitazioni Forti  Vento > 20 kt
SIGMETs :   Varie  Temporali  Ghiacco  Turbolenza  Onda orograficha  Ceneri Vulcaniche






- Altitudine del aeroporto : 290 ft
- Codice IATA : LAI


LFRO - Lannion

ULTIMO METAR :
  • 140530Z AUTO 10005KT 7000 -RA SCT003/// BKN015/// BKN024/// ///TCU 11/11 Q1005

METARs OBSOLETI :
  • 140500Z AUTO 10004KT 8000 -RA FEW018/// OVC090/// ///TCU 11/11 Q1006
  • 140430Z AUTO 10005KT 070V130 7000 -RA FEW007/// OVC088/// ///TCU 12/11 Q1006
  • 140400Z AUTO 10004KT 9000 -RA ///TCU 12/11 Q1006
  • 140330Z AUTO 12004KT 8000 -RA ///TCU 12/11 Q1007
  • 140300Z AUTO 13005KT 8000 -RA ///TCU 12/11 Q1007

Previsioni scadute.



MetMap, La meteo Aeronautica in un colpo d'occhio ! - Copyright ORBIFLY Dicembre 2007 - Disclaimer

ORBIFLY MET'MAP TEAM :

Programmazione e sviluppo : Alexandra Zaïnal
Concezione e sviluppo : Baudouin d'Aumeries
Co-Programmazione e sviluppo : Marc-Olivier Méhu
Supporto tecnico e logistico : Manuel Goepfert
Aiuto per la traduzione : Arnaldo La Scala

Contatto : metmap@orbifly.com




FONTI E CREDITI :

   NOAA